Time;durP1;ratioP1;P1;durP2;ratioP2;P2;SDS_P1;SDS_P2;PMS_P1;PMS_P2;Temp;Humidity;BMP_temperature;BMP_pressure;BME280_temperature;BME280_humidity;BME280_pressure;Samples;Min_cycle;Max_cycle;Signal;HPM_P1;HPM_P2
2021/01/20 00:00:27;;;;;;;10.13;7.03;;;;;;;;;;730920;188;919166;-66
2021/01/20 00:02:53;;;;;;;11.17;7.50;;;;;;;;;;739167;190;917715;-67
2021/01/20 00:05:19;;;;;;;10.53;6.83;;;;;;;;;;732132;188;919007;-67
2021/01/20 00:07:45;;;;;;;11.07;7.60;;;;;;;;;;732995;188;918707;-67
2021/01/20 00:10:11;;;;;;;9.60;7.03;;;;;;;;;;734459;188;918471;-66
2021/01/20 00:12:37;;;;;;;11.27;6.63;;;;;;;;;;732800;191;918860;-68
2021/01/20 00:15:03;;;;;;;15.53;7.10;;;;;;;;;;730586;188;918985;-68
2021/01/20 00:17:29;;;;;;;14.30;8.40;;;;;;;;;;734558;188;918616;-68
2021/01/20 00:19:55;;;;;;;10.77;6.97;;;;;;;;;;737023;188;918509;-67
2021/01/20 00:22:21;;;;;;;10.33;6.53;;;;;;;;;;734225;188;919644;-67
2021/01/20 00:24:46;;;;;;;10.70;7.90;;;;;;;;;;729014;188;1030201;-68
2021/01/20 00:27:12;;;;;;;15.00;9.53;;;;;;;;;;738306;187;928188;-67
2021/01/20 00:29:38;;;;;;;14.25;9.20;;;;;;;;;;732552;187;918511;-68
2021/01/20 00:32:04;;;;;;;17.53;10.17;;;;;;;;;;732524;188;920844;-67
2021/01/20 00:34:30;;;;;;;14.53;9.23;;;;;;;;;;739861;188;920745;-67
2021/01/20 00:36:56;;;;;;;17.37;10.97;;;;;;;;;;734610;188;915348;-67
2021/01/20 00:39:22;;;;;;;15.77;10.00;;;;;;;;;;736158;188;919420;-67
2021/01/20 00:41:47;;;;;;;13.67;9.13;;;;;;;;;;733164;188;915691;-67
2021/01/20 00:44:13;;;;;;;15.60;11.00;;;;;;;;;;739675;189;915766;-67
2021/01/20 00:46:39;;;;;;;18.07;10.23;;;;;;;;;;736095;188;915218;-68
2021/01/20 00:49:05;;;;;;;14.40;10.75;;;;;;;;;;732609;188;919329;-68
2021/01/20 00:51:31;;;;;;;17.30;10.70;;;;;;;;;;736328;188;913861;-68
2021/01/20 00:53:57;;;;;;;18.60;9.43;;;;;;;;;;736951;188;918725;-68
2021/01/20 00:56:22;;;;;;;14.40;9.57;;;;;;;;;;732762;188;918969;-68
2021/01/20 00:58:48;;;;;;;13.73;9.33;;;;;;;;;;738256;190;920977;-68
2021/01/20 01:01:14;;;;;;;11.57;7.57;;;;;;;;;;732706;188;920270;-69
2021/01/20 01:03:40;;;;;;;12.43;8.40;;;;;;;;;;732125;190;918693;-69
2021/01/20 01:06:06;;;;;;;13.68;10.00;;;;;;;;;;735628;188;919709;-68
2021/01/20 01:08:32;;;;;;;11.63;8.33;;;;;;;;;;736451;188;915959;-69
2021/01/20 01:10:58;;;;;;;13.87;8.70;;;;;;;;;;734427;188;919961;-69
2021/01/20 01:13:24;;;;;;;13.00;7.43;;;;;;;;;;733535;188;918748;-68
2021/01/20 01:15:50;;;;;;;14.93;7.97;;;;;;;;;;738540;188;919601;-69
2021/01/20 01:18:16;;;;;;;20.47;10.50;;;;;;;;;;727740;188;918943;-70
2021/01/20 01:20:41;;;;;;;16.62;9.45;;;;;;;;;;735102;187;929235;-70
2021/01/20 01:23:07;;;;;;;12.97;9.50;;;;;;;;;;735893;188;918194;-69
2021/01/20 01:25:33;;;;;;;14.60;9.30;;;;;;;;;;733120;188;918617;-70
2021/01/20 01:27:59;;;;;;;16.13;9.80;;;;;;;;;;731372;188;918655;-71
2021/01/20 01:30:25;;;;;;;14.93;9.40;;;;;;;;;;742023;188;918847;-72
2021/01/20 01:32:51;;;;;;;15.53;10.83;;;;;;;;;;732458;188;1002893;-72
2021/01/20 01:35:16;;;;;;;18.10;10.20;;;;;;;;;;731728;188;919044;-71
2021/01/20 01:37:42;;;;;;;16.50;10.77;;;;;;;;;;733195;187;917890;-69
2021/01/20 01:40:08;;;;;;;14.33;9.87;;;;;;;;;;732075;187;919151;-70
2021/01/20 01:42:34;;;;;;;15.03;9.37;;;;;;;;;;728606;188;1095066;-69
2021/01/20 01:45:00;;;;;;;16.93;10.23;;;;;;;;;;732047;187;919618;-71
2021/01/20 01:47:26;;;;;;;13.70;8.60;;;;;;;;;;741594;188;919551;-69
2021/01/20 01:49:56;;;;;;;15.53;10.03;;;;;;;;;;732620;188;918377;-70
2021/01/20 01:52:18;;;;;;;16.47;10.27;;;;;;;;;;738070;188;918903;-70
2021/01/20 01:54:43;;;;;;;17.07;10.77;;;;;;;;;;737223;189;1061846;-70
2021/01/20 01:57:09;;;;;;;17.03;9.87;;;;;;;;;;736616;188;918234;-70
2021/01/20 01:59:35;;;;;;;16.10;11.40;;;;;;;;;;730951;188;919144;-71
2021/01/20 02:02:02;;;;;;;18.00;11.15;;;;;;;;;;736743;188;918666;-69
2021/01/20 02:04:28;;;;;;;18.63;10.30;;;;;;;;;;727242;188;918895;-71
2021/01/20 02:06:53;;;;;;;15.20;10.10;;;;;;;;;;733358;188;920399;-70
2021/01/20 02:09:19;;;;;;;18.10;11.60;;;;;;;;;;732694;188;918543;-70
2021/01/20 02:11:48;;;;;;;19.77;11.45;;;;;;;;;;742362;188;919298;-70
2021/01/20 02:14:15;;;;;;;22.70;12.17;;;;;;;;;;732050;189;918030;-71
2021/01/20 02:16:41;;;;;;;13.27;9.03;;;;;;;;;;737080;188;918995;-71
2021/01/20 02:19:07;;;;;;;14.80;10.60;;;;;;;;;;737336;190;992841;-71
2021/01/20 02:21:38;;;;;;;22.60;10.50;;;;;;;;;;729324;188;979831;-72
2021/01/20 02:24:02;;;;;;;18.13;10.60;;;;;;;;;;730670;188;919116;-71
2021/01/20 02:26:45;;;;;;;16.90;9.97;;;;;;;;;;732556;188;918810;-71
2021/01/20 02:29:16;;;;;;;15.33;9.93;;;;;;;;;;733196;188;918622;-71
2021/01/20 02:31:42;;;;;;;13.77;9.50;;;;;;;;;;735748;188;917755;-71
2021/01/20 02:34:08;;;;;;;15.20;10.90;;;;;;;;;;732165;190;918587;-70
2021/01/20 02:36:34;;;;;;;17.47;11.73;;;;;;;;;;731091;187;919369;-71
2021/01/20 02:39:00;;;;;;;16.33;10.63;;;;;;;;;;740044;189;918638;-70
2021/01/20 02:41:25;;;;;;;16.50;10.80;;;;;;;;;;734087;188;919391;-72
2021/01/20 02:43:51;;;;;;;18.75;10.52;;;;;;;;;;728955;188;918381;-71
2021/01/20 02:46:17;;;;;;;17.27;11.10;;;;;;;;;;728971;188;921482;-71
2021/01/20 02:48:43;;;;;;;17.20;10.33;;;;;;;;;;739139;187;918209;-72
2021/01/20 02:51:09;;;;;;;17.53;10.27;;;;;;;;;;733461;187;919415;-71
2021/01/20 02:53:35;;;;;;;18.30;10.50;;;;;;;;;;734270;190;918890;-72
2021/01/20 02:56:00;;;;;;;14.83;9.57;;;;;;;;;;739974;188;917616;-72
2021/01/20 02:58:27;;;;;;;16.57;10.40;;;;;;;;;;733790;188;918649;-73
2021/01/20 03:00:53;;;;;;;15.10;10.00;;;;;;;;;;731819;188;1003486;-73
2021/01/20 03:03:19;;;;;;;17.73;9.50;;;;;;;;;;738853;189;930674;-73
2021/01/20 03:05:45;;;;;;;14.60;9.80;;;;;;;;;;733798;188;919265;-73
2021/01/20 03:08:11;;;;;;;16.13;9.23;;;;;;;;;;731946;188;919187;-74
2021/01/20 03:10:36;;;;;;;15.63;9.03;;;;;;;;;;733543;188;918890;-73
2021/01/20 03:13:02;;;;;;;16.85;9.35;;;;;;;;;;734891;188;918987;-72
2021/01/20 03:15:29;;;;;;;19.07;11.53;;;;;;;;;;725858;189;919653;-74
2021/01/20 03:17:55;;;;;;;14.93;10.00;;;;;;;;;;730589;188;919278;-72
2021/01/20 03:20:21;;;;;;;15.00;9.40;;;;;;;;;;739977;188;918707;-74
2021/01/20 03:22:47;;;;;;;15.52;9.85;;;;;;;;;;732248;188;1024575;-74
2021/01/20 03:25:13;;;;;;;15.00;10.10;;;;;;;;;;733248;190;918986;-73
2021/01/20 03:27:39;;;;;;;18.10;11.37;;;;;;;;;;734524;188;904276;-74
2021/01/20 03:30:05;;;;;;;15.67;11.17;;;;;;;;;;734662;188;918746;-73
2021/01/20 03:32:31;;;;;;;16.07;10.80;;;;;;;;;;734133;188;919411;-74
2021/01/20 03:34:57;;;;;;;20.40;11.95;;;;;;;;;;734762;188;918394;-74
2021/01/20 03:37:23;;;;;;;20.43;11.60;;;;;;;;;;726625;190;919426;-74
2021/01/20 03:39:49;;;;;;;16.90;10.80;;;;;;;;;;736357;188;918982;-73
2021/01/20 03:42:15;;;;;;;17.87;11.40;;;;;;;;;;734359;188;921551;-73
2021/01/20 03:44:41;;;;;;;19.67;11.47;;;;;;;;;;728149;188;918146;-75
2021/01/20 03:47:07;;;;;;;21.00;12.70;;;;;;;;;;738251;188;918605;-74
2021/01/20 03:49:32;;;;;;;20.70;11.83;;;;;;;;;;733820;188;918159;-72
2021/01/20 03:51:58;;;;;;;22.60;12.50;;;;;;;;;;739022;188;918133;-75
2021/01/20 03:54:24;;;;;;;19.60;13.40;;;;;;;;;;733942;188;919482;-74
2021/01/20 03:56:50;;;;;;;23.70;13.67;;;;;;;;;;734126;189;918609;-75
2021/01/20 03:59:16;;;;;;;25.47;12.53;;;;;;;;;;736621;188;918504;-75
2021/01/20 04:01:42;;;;;;;23.00;12.90;;;;;;;;;;734789;187;917856;-74
2021/01/20 04:04:07;;;;;;;19.10;12.07;;;;;;;;;;734011;188;914993;-75
2021/01/20 04:06:33;;;;;;;17.53;11.07;;;;;;;;;;733512;188;919047;-75
2021/01/20 04:08:59;;;;;;;15.70;10.27;;;;;;;;;;738627;188;918043;-75
2021/01/20 04:11:25;;;;;;;16.77;10.90;;;;;;;;;;724525;188;918927;-75
2021/01/20 04:13:51;;;;;;;17.27;10.70;;;;;;;;;;730982;188;918645;-76
2021/01/20 04:16:17;;;;;;;16.90;12.03;;;;;;;;;;740320;188;917097;-75
2021/01/20 04:18:43;;;;;;;17.73;10.13;;;;;;;;;;737270;188;918201;-75
2021/01/20 04:21:09;;;;;;;17.43;10.37;;;;;;;;;;738096;188;918659;-75
2021/01/20 04:23:36;;;;;;;15.73;9.20;;;;;;;;;;736427;188;919253;-74
2021/01/20 04:26:01;;;;;;;17.73;9.80;;;;;;;;;;732599;188;918625;-75
2021/01/20 04:28:27;;;;;;;17.87;9.97;;;;;;;;;;734238;188;916908;-74
2021/01/20 04:30:53;;;;;;;14.47;9.60;;;;;;;;;;732839;188;917416;-74
2021/01/20 04:33:19;;;;;;;15.75;10.13;;;;;;;;;;732750;191;916762;-74
2021/01/20 04:35:44;;;;;;;14.37;8.83;;;;;;;;;;734302;188;918646;-73
2021/01/20 04:38:10;;;;;;;14.80;8.63;;;;;;;;;;730474;188;918396;-75
2021/01/20 04:40:36;;;;;;;14.00;9.00;;;;;;;;;;737646;188;918624;-75
2021/01/20 04:43:02;;;;;;;13.50;8.70;;;;;;;;;;734210;188;920164;-76
2021/01/20 04:45:28;;;;;;;15.90;10.70;;;;;;;;;;730775;188;918640;-75
2021/01/20 04:47:54;;;;;;;16.73;9.95;;;;;;;;;;739759;188;919989;-75
2021/01/20 04:50:19;;;;;;;18.60;12.07;;;;;;;;;;730996;188;927581;-74
2021/01/20 04:52:45;;;;;;;17.03;10.20;;;;;;;;;;727453;188;920264;-75
2021/01/20 04:55:11;;;;;;;14.30;10.70;;;;;;;;;;737026;189;918124;-74
2021/01/20 04:57:37;;;;;;;16.00;9.73;;;;;;;;;;732164;188;919675;-73
2021/01/20 05:00:03;;;;;;;19.67;9.35;;;;;;;;;;734437;188;918638;-74
2021/01/20 05:02:29;;;;;;;14.10;9.70;;;;;;;;;;733072;188;918899;-74
2021/01/20 05:04:55;;;;;;;18.57;9.57;;;;;;;;;;742087;188;911929;-74
2021/01/20 05:07:21;;;;;;;15.00;9.70;;;;;;;;;;733108;189;911839;-75
2021/01/20 05:09:46;;;;;;;13.00;8.87;;;;;;;;;;737508;190;647877;-74
2021/01/20 05:12:18;;;;;;;14.30;9.97;;;;;;;;;;737779;187;894409;-74
2021/01/20 05:14:44;;;;;;;17.03;9.87;;;;;;;;;;737686;187;918764;-73
2021/01/20 05:17:10;;;;;;;16.00;9.20;;;;;;;;;;727980;188;1829238;-73
2021/01/20 05:19:36;;;;;;;13.63;8.23;;;;;;;;;;733832;188;919026;-74
2021/01/20 05:22:04;;;;;;;14.00;8.10;;;;;;;;;;736278;191;644762;-74
2021/01/20 05:24:27;;;;;;;11.90;7.50;;;;;;;;;;734684;188;925620;-74
2021/01/20 05:26:53;;;;;;;13.10;7.67;;;;;;;;;;731527;188;918950;-73
2021/01/20 05:29:19;;;;;;;10.70;7.43;;;;;;;;;;742306;188;918982;-72
2021/01/20 05:31:45;;;;;;;9.97;6.77;;;;;;;;;;731609;188;919292;-73
2021/01/20 05:34:16;;;;;;;12.87;8.17;;;;;;;;;;735307;188;919974;-74
2021/01/20 05:36:43;;;;;;;13.27;7.70;;;;;;;;;;736737;188;919218;-74
2021/01/20 05:39:09;;;;;;;11.27;7.45;;;;;;;;;;737548;189;909303;-73
2021/01/20 05:41:35;;;;;;;11.97;7.47;;;;;;;;;;735289;188;918689;-74
2021/01/20 05:44:06;;;;;;;11.63;6.83;;;;;;;;;;731824;188;918391;-74
2021/01/20 05:46:32;;;;;;;12.60;7.60;;;;;;;;;;740051;188;919459;-74
2021/01/20 05:48:58;;;;;;;12.30;8.17;;;;;;;;;;733198;188;917854;-74
2021/01/20 05:51:24;;;;;;;12.63;7.23;;;;;;;;;;733046;188;918848;-74
2021/01/20 05:53:50;;;;;;;13.17;8.97;;;;;;;;;;736035;188;919169;-73
2021/01/20 05:56:16;;;;;;;11.60;8.23;;;;;;;;;;736210;188;918124;-71
2021/01/20 05:58:42;;;;;;;16.00;9.10;;;;;;;;;;729886;188;1058074;-73
2021/01/20 06:01:08;;;;;;;17.17;9.60;;;;;;;;;;732672;188;918829;-73
2021/01/20 06:03:34;;;;;;;17.67;8.70;;;;;;;;;;733671;189;917427;-72
2021/01/20 06:06:00;;;;;;;16.00;9.20;;;;;;;;;;720960;190;919279;-71
2021/01/20 06:08:25;;;;;;;14.03;9.40;;;;;;;;;;723084;189;918684;-72
2021/01/20 06:10:51;;;;;;;16.00;7.67;;;;;;;;;;731646;189;920738;-73
2021/01/20 06:13:17;;;;;;;12.90;8.53;;;;;;;;;;725524;190;928807;-72
2021/01/20 06:15:43;;;;;;;12.50;7.93;;;;;;;;;;726714;190;1012827;-73
2021/01/20 06:18:09;;;;;;;14.63;8.73;;;;;;;;;;731983;190;918480;-71
2021/01/20 06:20:35;;;;;;;13.93;9.57;;;;;;;;;;724738;190;918993;-73
2021/01/20 06:23:01;;;;;;;15.70;8.67;;;;;;;;;;725025;189;932256;-75
2021/01/20 06:25:29;;;;;;;15.43;11.10;;;;;;;;;;726677;188;919663;-70
2021/01/20 06:28:12;;;;;;;17.50;9.50;;;;;;;;;;721509;190;917801;-72
2021/01/20 06:30:38;;;;;;;14.20;9.52;;;;;;;;;;730677;190;922356;-72
2021/01/20 06:33:05;;;;;;;14.43;9.10;;;;;;;;;;729232;189;918603;-72
2021/01/20 06:35:36;;;;;;;15.82;8.65;;;;;;;;;;724809;189;918721;-73
2021/01/20 06:38:02;;;;;;;14.00;9.00;;;;;;;;;;727091;190;937072;-70
2021/01/20 06:40:43;;;;;;;14.07;9.17;;;;;;;;;;727014;191;919051;-73
2021/01/20 06:43:23;;;;;;;13.48;9.25;;;;;;;;;;725612;189;918627;-73
2021/01/20 06:45:49;;;;;;;12.83;8.00;;;;;;;;;;723012;189;938662;-73
2021/01/20 06:48:15;;;;;;;14.63;8.10;;;;;;;;;;722896;190;919463;-73
2021/01/20 06:50:47;;;;;;;13.53;8.40;;;;;;;;;;726310;188;918013;-72
2021/01/20 06:53:13;;;;;;;11.17;8.00;;;;;;;;;;721556;191;918777;-72
2021/01/20 06:55:39;;;;;;;19.27;10.10;;;;;;;;;;721852;190;918978;-72
2021/01/20 06:58:10;;;;;;;14.33;9.50;;;;;;;;;;725355;188;970265;-72
2021/01/20 07:00:36;;;;;;;16.77;9.43;;;;;;;;;;721203;189;917928;-72
2021/01/20 07:03:03;;;;;;;21.05;11.73;;;;;;;;;;726011;191;920549;-73
2021/01/20 07:05:35;;;;;;;17.13;10.17;;;;;;;;;;723520;188;918922;-71
2021/01/20 07:08:01;;;;;;;22.17;10.82;;;;;;;;;;725077;190;917891;-73
2021/01/20 07:10:27;;;;;;;17.90;11.37;;;;;;;;;;718860;190;919150;-73
2021/01/20 07:12:58;;;;;;;20.27;12.13;;;;;;;;;;722309;188;915727;-73
2021/01/20 07:15:24;;;;;;;23.80;12.90;;;;;;;;;;724364;189;915896;-72
2021/01/20 07:17:50;;;;;;;17.52;10.25;;;;;;;;;;722360;190;914126;-74
2021/01/20 07:20:16;;;;;;;14.60;9.23;;;;;;;;;;728173;190;915217;-73
2021/01/20 07:22:41;;;;;;;15.48;9.95;;;;;;;;;;725692;190;940155;-73
2021/01/20 07:25:08;;;;;;;17.57;11.50;;;;;;;;;;727404;190;918624;-73
2021/01/20 07:27:34;;;;;;;18.10;11.50;;;;;;;;;;725980;190;919080;-73
2021/01/20 07:30:00;;;;;;;14.90;9.80;;;;;;;;;;726476;190;918854;-74
2021/01/20 07:32:28;;;;;;;14.43;10.37;;;;;;;;;;726906;188;918102;-73
2021/01/20 07:34:54;;;;;;;16.50;10.50;;;;;;;;;;729299;187;914036;-73
2021/01/20 07:37:20;;;;;;;14.87;9.40;;;;;;;;;;729363;190;919082;-74
2021/01/20 07:39:46;;;;;;;18.35;10.73;;;;;;;;;;725821;190;914455;-73
2021/01/20 07:42:12;;;;;;;15.17;9.37;;;;;;;;;;719167;189;919004;-73
2021/01/20 07:44:47;;;;;;;16.13;9.97;;;;;;;;;;730550;190;917875;-73
2021/01/20 07:47:13;;;;;;;17.70;10.97;;;;;;;;;;730816;189;917734;-74
2021/01/20 07:49:39;;;;;;;16.40;10.00;;;;;;;;;;726899;188;919874;-73
2021/01/20 07:52:07;;;;;;;19.17;10.10;;;;;;;;;;723568;188;918339;-72
2021/01/20 07:54:34;;;;;;;18.30;9.80;;;;;;;;;;733007;189;914359;-73
2021/01/20 07:57:00;;;;;;;17.93;9.57;;;;;;;;;;731187;189;913455;-72
2021/01/20 07:59:25;;;;;;;19.70;10.93;;;;;;;;;;726409;188;912696;-73
2021/01/20 08:01:51;;;;;;;17.87;9.87;;;;;;;;;;731345;190;928986;-74
2021/01/20 08:04:18;;;;;;;12.37;9.07;;;;;;;;;;725610;189;912158;-72
2021/01/20 08:06:44;;;;;;;13.90;8.70;;;;;;;;;;727286;189;919249;-74
2021/01/20 08:09:10;;;;;;;15.20;9.90;;;;;;;;;;724917;189;916149;-73
2021/01/20 08:11:35;;;;;;;18.93;10.10;;;;;;;;;;732415;190;918798;-74
2021/01/20 08:14:02;;;;;;;17.97;10.37;;;;;;;;;;702352;190;4890556;-73
2021/01/20 08:16:27;;;;;;;15.90;10.37;;;;;;;;;;723503;191;920268;-73
2021/01/20 08:18:53;;;;;;;19.03;10.37;;;;;;;;;;733874;190;915494;-74
2021/01/20 08:21:19;;;;;;;18.45;11.00;;;;;;;;;;728372;189;922674;-75
2021/01/20 08:23:48;;;;;;;19.50;10.50;;;;;;;;;;719295;189;918427;-75
2021/01/20 08:26:13;;;;;;;23.13;11.63;;;;;;;;;;729281;190;918939;-75
2021/01/20 08:28:39;;;;;;;15.20;10.20;;;;;;;;;;723447;190;918239;-75
2021/01/20 08:31:21;;;;;;;20.20;10.80;;;;;;;;;;723515;190;919771;-75
2021/01/20 08:33:47;;;;;;;16.77;9.77;;;;;;;;;;724177;190;918945;-75
2021/01/20 08:36:13;;;;;;;16.83;9.63;;;;;;;;;;724788;190;920195;-76
2021/01/20 08:38:39;;;;;;;11.00;7.00;;;;;;;;;;724914;191;916917;-75
2021/01/20 08:41:08;;;;;;;14.90;9.10;;;;;;;;;;726473;190;919634;-76
2021/01/20 08:43:34;;;;;;;13.67;9.20;;;;;;;;;;725891;189;919047;-74
2021/01/20 08:46:00;;;;;;;15.65;9.10;;;;;;;;;;728422;190;918016;-74
2021/01/20 08:48:28;;;;;;;18.40;9.53;;;;;;;;;;728827;189;918357;-73
2021/01/20 08:50:56;;;;;;;14.10;9.40;;;;;;;;;;723987;190;920745;-73
2021/01/20 08:53:25;;;;;;;16.58;9.52;;;;;;;;;;731617;188;917598;-73
2021/01/20 08:55:51;;;;;;;13.57;8.87;;;;;;;;;;726890;189;916058;-73
2021/01/20 08:58:16;;;;;;;12.70;8.43;;;;;;;;;;729671;189;913040;-73
2021/01/20 09:00:42;;;;;;;17.37;9.77;;;;;;;;;;723114;190;1108505;-72
2021/01/20 09:03:14;;;;;;;12.10;6.60;;;;;;;;;;732443;190;918819;-74
2021/01/20 09:05:40;;;;;;;12.23;8.10;;;;;;;;;;727937;188;911046;-72
2021/01/20 09:08:06;;;;;;;12.90;8.10;;;;;;;;;;726818;190;919188;-72
2021/01/20 09:10:31;;;;;;;10.30;6.33;;;;;;;;;;715202;191;915144;-72
2021/01/20 09:12:57;;;;;;;12.40;8.17;;;;;;;;;;731558;189;1045031;-71
2021/01/20 09:15:23;;;;;;;16.70;8.37;;;;;;;;;;724170;190;918212;-71
2021/01/20 09:17:49;;;;;;;12.70;7.47;;;;;;;;;;726083;190;919025;-71
2021/01/20 09:20:15;;;;;;;13.33;7.57;;;;;;;;;;730871;189;918599;-72
2021/01/20 09:22:41;;;;;;;13.20;8.70;;;;;;;;;;722338;189;1289105;-72
2021/01/20 09:25:07;;;;;;;12.33;7.90;;;;;;;;;;726812;190;947305;-72
2021/01/20 09:27:33;;;;;;;12.00;6.80;;;;;;;;;;727095;190;863004;-71
2021/01/20 09:29:59;;;;;;;9.00;6.37;;;;;;;;;;726056;190;918915;-70
2021/01/20 09:32:24;;;;;;;9.40;5.80;;;;;;;;;;720266;190;918592;-70
2021/01/20 09:34:50;;;;;;;9.43;6.07;;;;;;;;;;722769;190;1043316;-70
2021/01/20 09:37:16;;;;;;;11.50;6.93;;;;;;;;;;724838;191;918260;-69
2021/01/20 09:39:42;;;;;;;13.43;6.50;;;;;;;;;;722012;188;920146;-70
2021/01/20 09:42:08;;;;;;;9.80;6.20;;;;;;;;;;724768;190;917448;-69
2021/01/20 09:44:34;;;;;;;9.40;5.85;;;;;;;;;;730329;190;918594;-70
2021/01/20 09:47:00;;;;;;;11.17;6.90;;;;;;;;;;723654;190;916998;-68
2021/01/20 09:49:25;;;;;;;10.82;6.55;;;;;;;;;;725520;190;918623;-68
2021/01/20 09:51:51;;;;;;;9.03;5.90;;;;;;;;;;727386;189;918657;-68
2021/01/20 09:54:18;;;;;;;9.43;5.63;;;;;;;;;;728518;190;918705;-67
2021/01/20 09:56:43;;;;;;;10.17;5.90;;;;;;;;;;729072;190;629729;-67
2021/01/20 09:59:09;;;;;;;9.13;6.07;;;;;;;;;;733902;188;658703;-66
2021/01/20 10:01:35;;;;;;;10.47;5.53;;;;;;;;;;731369;190;914416;-67
2021/01/20 10:04:01;;;;;;;9.57;5.60;;;;;;;;;;728871;188;918716;-66
2021/01/20 10:06:27;;;;;;;8.73;4.72;;;;;;;;;;727984;189;961041;-66
2021/01/20 10:08:53;;;;;;;8.13;5.27;;;;;;;;;;728412;189;712459;-66
2021/01/20 10:11:19;;;;;;;6.10;4.13;;;;;;;;;;726999;189;918994;-66
2021/01/20 10:13:44;;;;;;;10.00;4.50;;;;;;;;;;724664;190;919383;-66
2021/01/20 10:16:10;;;;;;;5.47;3.60;;;;;;;;;;732241;190;918581;-67
2021/01/20 10:18:36;;;;;;;6.37;4.10;;;;;;;;;;724020;189;925527;-66
2021/01/20 10:21:02;;;;;;;6.20;4.10;;;;;;;;;;728266;191;918628;-67
2021/01/20 10:23:28;;;;;;;4.43;3.50;;;;;;;;;;729492;190;918986;-67
2021/01/20 10:25:54;;;;;;;5.40;3.80;;;;;;;;;;727968;189;919608;-66
2021/01/20 10:28:20;;;;;;;3.90;2.90;;;;;;;;;;723305;189;1370354;-66
2021/01/20 10:30:45;;;;;;;6.90;4.03;;;;;;;;;;725339;189;926897;-66
2021/01/20 10:33:11;;;;;;;5.90;2.90;;;;;;;;;;730565;189;918625;-68
2021/01/20 10:35:40;;;;;;;4.83;3.00;;;;;;;;;;722835;189;919249;-67
2021/01/20 10:38:04;;;;;;;5.50;3.10;;;;;;;;;;731646;189;919243;-66
2021/01/20 10:40:30;;;;;;;4.73;3.57;;;;;;;;;;726787;190;928268;-66
2021/01/20 10:42:56;;;;;;;5.63;3.50;;;;;;;;;;729212;189;918994;-66
2021/01/20 10:45:21;;;;;;;5.13;3.57;;;;;;;;;;726211;190;920490;-65
2021/01/20 10:47:48;;;;;;;6.10;3.80;;;;;;;;;;730646;190;919229;-65
2021/01/20 10:50:13;;;;;;;6.27;3.40;;;;;;;;;;724157;191;1406670;-65
2021/01/20 10:52:39;;;;;;;5.90;3.87;;;;;;;;;;730605;188;919246;-65
2021/01/20 10:55:06;;;;;;;6.10;3.97;;;;;;;;;;726894;190;919122;-64
2021/01/20 10:57:31;;;;;;;13.03;3.90;;;;;;;;;;730259;190;918391;-65
2021/01/20 10:59:57;;;;;;;5.17;3.67;;;;;;;;;;724054;190;919353;-65
2021/01/20 11:02:23;;;;;;;6.80;3.90;;;;;;;;;;725572;188;918814;-64
2021/01/20 11:04:49;;;;;;;7.50;3.40;;;;;;;;;;729445;190;918888;-64
2021/01/20 11:07:17;;;;;;;6.57;3.83;;;;;;;;;;727084;190;919926;-63
2021/01/20 11:09:42;;;;;;;7.07;4.37;;;;;;;;;;723538;189;1165002;-65
2021/01/20 11:12:07;;;;;;;5.20;3.77;;;;;;;;;;734472;187;915202;-64
2021/01/20 11:14:34;;;;;;;6.23;3.60;;;;;;;;;;723446;189;915084;-64
2021/01/20 11:16:59;;;;;;;5.27;3.47;;;;;;;;;;724925;188;915614;-64
2021/01/20 11:19:26;;;;;;;5.25;3.53;;;;;;;;;;729154;189;923901;-66
2021/01/20 11:21:52;;;;;;;7.57;4.63;;;;;;;;;;731291;190;919792;-64
2021/01/20 11:24:18;;;;;;;8.37;4.03;;;;;;;;;;724537;190;918332;-63
2021/01/20 11:26:45;;;;;;;7.97;4.50;;;;;;;;;;722343;189;918508;-63
2021/01/20 11:29:11;;;;;;;6.28;3.95;;;;;;;;;;728332;190;920427;-63
2021/01/20 11:31:36;;;;;;;6.30;4.27;;;;;;;;;;726017;189;918970;-64
2021/01/20 11:34:02;;;;;;;5.90;3.50;;;;;;;;;;725877;190;919502;-64
2021/01/20 11:36:28;;;;;;;6.23;3.93;;;;;;;;;;722773;189;919327;-64
2021/01/20 11:38:54;;;;;;;6.73;3.70;;;;;;;;;;726917;190;918395;-64
2021/01/20 11:41:20;;;;;;;5.70;4.10;;;;;;;;;;726005;189;918250;-65
2021/01/20 11:43:47;;;;;;;7.20;4.05;;;;;;;;;;727765;190;919727;-66
2021/01/20 11:46:12;;;;;;;7.07;3.87;;;;;;;;;;725303;189;627651;-64
2021/01/20 11:48:37;;;;;;;9.88;5.07;;;;;;;;;;726540;190;924233;-64
2021/01/20 11:51:03;;;;;;;4.87;3.47;;;;;;;;;;727425;190;648288;-64
2021/01/20 11:53:29;;;;;;;8.40;6.57;;;;;;;;;;731216;189;643966;-64
2021/01/20 11:55:55;;;;;;;5.43;3.67;;;;;;;;;;729594;190;862009;-66
2021/01/20 11:58:21;;;;;;;6.60;3.67;;;;;;;;;;720819;191;1009258;-66
2021/01/20 12:00:47;;;;;;;4.50;2.97;;;;;;;;;;730058;190;928462;-67
2021/01/20 12:03:13;;;;;;;3.33;2.50;;;;;;;;;;724328;190;953498;-67
2021/01/20 12:05:38;;;;;;;6.12;3.33;;;;;;;;;;727125;189;919157;-67
2021/01/20 12:08:05;;;;;;;4.97;2.60;;;;;;;;;;723092;190;919281;-68
2021/01/20 12:10:30;;;;;;;4.27;2.10;;;;;;;;;;725127;190;918957;-67
2021/01/20 12:12:56;;;;;;;4.55;3.00;;;;;;;;;;724834;189;918749;-69
2021/01/20 12:15:22;;;;;;;5.50;3.17;;;;;;;;;;728589;188;918922;-67
2021/01/20 12:17:48;;;;;;;4.77;3.10;;;;;;;;;;720477;191;1403201;-68
2021/01/20 12:20:14;;;;;;;6.17;3.03;;;;;;;;;;727570;190;923864;-68
2021/01/20 12:22:40;;;;;;;4.40;3.00;;;;;;;;;;727509;188;918693;-67
2021/01/20 12:25:06;;;;;;;5.10;3.70;;;;;;;;;;729416;189;916656;-69
2021/01/20 12:27:37;;;;;;;4.03;2.43;;;;;;;;;;733337;188;920485;-70
2021/01/20 12:30:00;;;;;;;4.70;2.93;;;;;;;;;;717382;188;919297;-68
2021/01/20 12:32:26;;;;;;;4.67;2.83;;;;;;;;;;730698;190;916383;-69
2021/01/20 12:34:52;;;;;;;5.63;3.37;;;;;;;;;;723206;189;1021268;-69
2021/01/20 12:37:18;;;;;;;5.82;3.45;;;;;;;;;;729731;190;918946;-69
2021/01/20 12:39:43;;;;;;;6.00;3.40;;;;;;;;;;723784;189;918899;-69
2021/01/20 12:42:09;;;;;;;4.67;3.40;;;;;;;;;;729888;191;870744;-69
2021/01/20 12:44:35;;;;;;;9.60;4.97;;;;;;;;;;725243;189;919030;-71
2021/01/20 12:47:01;;;;;;;6.15;3.72;;;;;;;;;;730579;188;919197;-71
2021/01/20 12:49:27;;;;;;;7.13;4.23;;;;;;;;;;727167;190;918353;-71
2021/01/20 12:51:53;;;;;;;5.47;3.80;;;;;;;;;;723700;188;918735;-71
2021/01/20 12:54:19;;;;;;;9.00;3.90;;;;;;;;;;724895;190;919034;-72
2021/01/20 12:56:44;;;;;;;8.52;4.32;;;;;;;;;;728586;190;915547;-74
2021/01/20 12:59:10;;;;;;;8.00;3.80;;;;;;;;;;726344;190;1018213;-73
2021/01/20 13:01:36;;;;;;;4.83;3.63;;;;;;;;;;728583;188;918893;-73
2021/01/20 13:04:03;;;;;;;4.97;2.87;;;;;;;;;;730172;190;918854;-72
2021/01/20 13:06:29;;;;;;;6.70;3.40;;;;;;;;;;726745;190;924606;-74
2021/01/20 13:08:55;;;;;;;5.67;3.00;;;;;;;;;;730316;189;1016905;-74
2021/01/20 13:11:20;;;;;;;6.10;3.30;;;;;;;;;;722493;190;918528;-73
2021/01/20 13:13:46;;;;;;;6.77;4.30;;;;;;;;;;730307;190;916275;-74
2021/01/20 13:16:12;;;;;;;6.07;3.07;;;;;;;;;;723680;190;916022;-74
2021/01/20 13:18:38;;;;;;;3.97;2.90;;;;;;;;;;728393;190;916843;-74
2021/01/20 13:21:04;;;;;;;3.73;2.90;;;;;;;;;;729266;190;919729;-75
2021/01/20 13:23:29;;;;;;;6.63;3.70;;;;;;;;;;728395;188;915074;-76
2021/01/20 13:25:55;;;;;;;4.40;3.23;;;;;;;;;;717232;188;2488385;-75
2021/01/20 13:28:21;;;;;;;5.50;3.60;;;;;;;;;;733290;189;915240;-76
2021/01/20 13:30:47;;;;;;;6.03;2.97;;;;;;;;;;725272;190;914971;-76
2021/01/20 13:33:15;;;;;;;4.78;3.05;;;;;;;;;;721374;189;918292;-76
2021/01/20 13:35:39;;;;;;;5.60;3.37;;;;;;;;;;728651;188;918478;-76
2021/01/20 13:38:04;;;;;;;4.80;3.20;;;;;;;;;;722554;188;919047;-77
2021/01/20 13:40:30;;;;;;;7.13;3.93;;;;;;;;;;724877;188;918218;-76
2021/01/20 13:42:56;;;;;;;6.27;4.07;;;;;;;;;;728030;188;918241;-75
2021/01/20 13:45:23;;;;;;;7.27;4.57;;;;;;;;;;728877;190;916063;-76
2021/01/20 13:47:48;;;;;;;8.33;5.90;;;;;;;;;;706587;189;2967947;-75
2021/01/20 13:50:14;;;;;;;7.63;4.90;;;;;;;;;;727004;190;1021350;-75
2021/01/20 13:52:40;;;;;;;5.60;4.00;;;;;;;;;;729090;189;816341;-75
2021/01/20 13:55:06;;;;;;;10.70;5.37;;;;;;;;;;724768;189;930336;-75
2021/01/20 13:57:32;;;;;;;8.10;5.60;;;;;;;;;;723372;190;918234;-74
2021/01/20 13:59:58;;;;;;;9.67;5.77;;;;;;;;;;729148;189;937414;-74
2021/01/20 14:02:24;;;;;;;10.67;5.47;;;;;;;;;;727873;190;889928;-74
2021/01/20 14:04:49;;;;;;;10.43;5.90;;;;;;;;;;728414;190;918404;-74
2021/01/20 14:07:16;;;;;;;12.50;5.33;;;;;;;;;;726258;190;918149;-74
2021/01/20 14:09:41;;;;;;;7.40;5.13;;;;;;;;;;730058;190;918613;-74